sensor_id;sensor_type;location;lat;lon;timestamp;P1;durP1;ratioP1;P2;durP2;ratioP2
21448;SDS011;10885;52.830;13.788;2023-02-10T06:15:07;65.05;;;28.55;;
21448;SDS011;10885;52.830;13.788;2023-02-10T06:20:28;58.42;;;25.02;;
21448;SDS011;10885;52.830;13.788;2023-02-10T06:25:49;60.45;;;27.73;;
21448;SDS011;10885;52.830;13.788;2023-02-10T06:31:14;70.93;;;28.20;;
21448;SDS011;10885;52.830;13.788;2023-02-10T06:36:35;72.30;;;29.10;;
21448;SDS011;10885;52.830;13.788;2023-02-10T06:41:56;62.25;;;27.88;;
21448;SDS011;10885;52.830;13.788;2023-02-10T06:47:18;70.20;;;30.42;;
21448;SDS011;10885;52.830;13.788;2023-02-10T06:52:39;65.75;;;29.00;;
21448;SDS011;10885;52.830;13.788;2023-02-10T06:57:59;68.78;;;28.05;;
21448;SDS011;10885;52.830;13.788;2023-02-10T07:03:21;60.90;;;28.05;;
21448;SDS011;10885;52.830;13.788;2023-02-10T07:08:42;71.10;;;29.80;;
21448;SDS011;10885;52.830;13.788;2023-02-10T07:14:03;65.95;;;27.73;;
21448;SDS011;10885;52.830;13.788;2023-02-10T07:19:24;76.90;;;30.58;;
21448;SDS011;10885;52.830;13.788;2023-02-10T07:24:45;69.97;;;30.27;;
21448;SDS011;10885;52.830;13.788;2023-02-10T07:30:06;67.70;;;27.73;;
21448;SDS011;10885;52.830;13.788;2023-02-10T07:35:27;69.70;;;29.40;;
21448;SDS011;10885;52.830;13.788;2023-02-10T07:40:48;60.30;;;28.27;;
21448;SDS011;10885;52.830;13.788;2023-02-10T07:46:09;74.10;;;30.92;;
21448;SDS011;10885;52.830;13.788;2023-02-10T07:51:30;65.28;;;27.33;;
21448;SDS011;10885;52.830;13.788;2023-02-10T07:56:51;60.22;;;28.27;;
21448;SDS011;10885;52.830;13.788;2023-02-10T08:02:12;62.03;;;28.27;;
21448;SDS011;10885;52.830;13.788;2023-02-10T08:07:33;62.95;;;27.67;;
21448;SDS011;10885;52.830;13.788;2023-02-10T08:12:54;65.10;;;26.15;;
21448;SDS011;10885;52.830;13.788;2023-02-10T08:18:15;62.13;;;27.33;;
21448;SDS011;10885;52.830;13.788;2023-02-10T08:23:37;65.82;;;27.05;;
21448;SDS011;10885;52.830;13.788;2023-02-10T08:28:58;58.53;;;26.13;;
21448;SDS011;10885;52.830;13.788;2023-02-10T08:34:20;58.33;;;25.75;;
21448;SDS011;10885;52.830;13.788;2023-02-10T08:39:41;55.00;;;25.27;;
21448;SDS011;10885;52.830;13.788;2023-02-10T08:45:03;62.58;;;27.05;;
21448;SDS011;10885;52.830;13.788;2023-02-10T08:50:25;65.90;;;26.25;;
21448;SDS011;10885;52.830;13.788;2023-02-10T08:55:59;48.40;;;24.10;;
21448;SDS011;10885;52.830;13.788;2023-02-10T09:01:25;50.58;;;23.67;;
21448;SDS011;10885;52.830;13.788;2023-02-10T09:06:49;51.05;;;25.38;;
21448;SDS011;10885;52.830;13.788;2023-02-10T09:12:10;55.90;;;25.70;;
21448;SDS011;10885;52.830;13.788;2023-02-10T09:17:32;57.85;;;25.65;;
21448;SDS011;10885;52.830;13.788;2023-02-10T09:28:13;60.70;;;25.08;;
21448;SDS011;10885;52.830;13.788;2023-02-10T09:38:56;58.47;;;25.10;;
21448;SDS011;10885;52.830;13.788;2023-02-10T09:44:22;52.22;;;25.92;;
21448;SDS011;10885;52.830;13.788;2023-02-10T09:55:30;49.25;;;25.48;;
21448;SDS011;10885;52.830;13.788;2023-02-10T10:01:15;57.30;;;25.75;;
21448;SDS011;10885;52.830;13.788;2023-02-10T10:06:51;53.15;;;23.77;;
21448;SDS011;10885;52.830;13.788;2023-02-10T10:12:17;58.05;;;25.17;;
21448;SDS011;10885;52.830;13.788;2023-02-10T10:23:42;56.25;;;23.17;;
21448;SDS011;10885;52.830;13.788;2023-02-10T10:29:23;50.83;;;23.95;;
21448;SDS011;10885;52.830;13.788;2023-02-10T10:34:55;51.42;;;25.00;;
21448;SDS011;10885;52.830;13.788;2023-02-10T10:40:38;54.72;;;23.10;;
21448;SDS011;10885;52.830;13.788;2023-02-10T10:46:03;58.20;;;24.77;;
21448;SDS011;10885;52.830;13.788;2023-02-10T10:51:31;49.90;;;23.05;;
21448;SDS011;10885;52.830;13.788;2023-02-10T10:56:56;52.67;;;22.88;;
21448;SDS011;10885;52.830;13.788;2023-02-10T11:02:21;54.13;;;23.92;;
21448;SDS011;10885;52.830;13.788;2023-02-10T11:07:46;51.42;;;22.25;;
21448;SDS011;10885;52.830;13.788;2023-02-10T11:13:17;60.03;;;21.55;;
21448;SDS011;10885;52.830;13.788;2023-02-10T11:18:51;51.83;;;22.07;;
21448;SDS011;10885;52.830;13.788;2023-02-10T11:24:19;49.92;;;21.50;;
21448;SDS011;10885;52.830;13.788;2023-02-10T11:29:45;49.33;;;20.67;;
21448;SDS011;10885;52.830;13.788;2023-02-10T11:35:14;46.03;;;20.30;;
21448;SDS011;10885;52.830;13.788;2023-02-10T11:41:38;44.67;;;20.80;;
21448;SDS011;10885;52.830;13.788;2023-02-10T11:46:32;48.67;;;21.20;;
21448;SDS011;10885;52.830;13.788;2023-02-10T11:51:53;45.72;;;20.27;;
21448;SDS011;10885;52.830;13.788;2023-02-10T12:14:48;43.13;;;19.52;;
21448;SDS011;10885;52.830;13.788;2023-02-10T12:38:17;33.38;;;16.30;;
21448;SDS011;10885;52.830;13.788;2023-02-10T12:55:01;41.40;;;16.30;;
21448;SDS011;10885;52.830;13.788;2023-02-10T13:00:48;40.80;;;16.95;;
21448;SDS011;10885;52.830;13.788;2023-02-10T13:06:19;37.03;;;16.60;;
21448;SDS011;10885;52.830;13.788;2023-02-10T13:17:40;31.05;;;15.05;;
21448;SDS011;10885;52.830;13.788;2023-02-10T13:23:06;31.27;;;14.63;;
21448;SDS011;10885;52.830;13.788;2023-02-10T13:40:02;43.50;;;16.90;;
21448;SDS011;10885;52.830;13.788;2023-02-10T13:50:58;36.42;;;17.00;;
21448;SDS011;10885;52.830;13.788;2023-02-10T14:07:44;41.80;;;17.52;;
21448;SDS011;10885;52.830;13.788;2023-02-10T14:13:18;47.83;;;17.60;;
21448;SDS011;10885;52.830;13.788;2023-02-10T14:18:43;45.42;;;17.35;;
21448;SDS011;10885;52.830;13.788;2023-02-10T14:24:15;44.00;;;17.25;;
21448;SDS011;10885;52.830;13.788;2023-02-10T14:29:48;43.78;;;17.42;;
21448;SDS011;10885;52.830;13.788;2023-02-10T14:35:20;33.78;;;16.17;;
21448;SDS011;10885;52.830;13.788;2023-02-10T14:40:48;40.30;;;17.33;;
21448;SDS011;10885;52.830;13.788;2023-02-10T14:46:18;37.75;;;16.33;;
21448;SDS011;10885;52.830;13.788;2023-02-10T14:51:43;38.28;;;16.15;;
21448;SDS011;10885;52.830;13.788;2023-02-10T14:57:09;31.63;;;15.80;;
21448;SDS011;10885;52.830;13.788;2023-02-10T15:02:33;33.80;;;14.65;;
21448;SDS011;10885;52.830;13.788;2023-02-10T15:07:55;37.33;;;15.77;;
21448;SDS011;10885;52.830;13.788;2023-02-10T15:13:20;39.03;;;14.70;;
21448;SDS011;10885;52.830;13.788;2023-02-10T15:18:47;34.45;;;13.38;;
21448;SDS011;10885;52.830;13.788;2023-02-10T15:24:21;33.33;;;13.25;;
21448;SDS011;10885;52.830;13.788;2023-02-10T15:29:51;38.72;;;16.30;;
21448;SDS011;10885;52.830;13.788;2023-02-10T15:35:11;32.78;;;13.55;;
21448;SDS011;10885;52.830;13.788;2023-02-10T15:40:34;30.27;;;13.25;;
21448;SDS011;10885;52.830;13.788;2023-02-10T15:46:17;32.70;;;14.73;;
21448;SDS011;10885;52.830;13.788;2023-02-10T15:51:41;39.15;;;14.65;;
21448;SDS011;10885;52.830;13.788;2023-02-10T15:57:06;42.53;;;15.23;;
21448;SDS011;10885;52.830;13.788;2023-02-10T16:02:26;40.97;;;14.90;;
21448;SDS011;10885;52.830;13.788;2023-02-10T16:07:48;38.85;;;15.43;;
21448;SDS011;10885;52.830;13.788;2023-02-10T16:13:12;42.42;;;16.00;;
21448;SDS011;10885;52.830;13.788;2023-02-10T16:18:35;40.55;;;15.40;;
21448;SDS011;10885;52.830;13.788;2023-02-10T16:23:57;42.00;;;16.27;;
21448;SDS011;10885;52.830;13.788;2023-02-10T16:29:19;45.17;;;18.50;;
21448;SDS011;10885;52.830;13.788;2023-02-10T16:34:42;50.38;;;20.30;;
21448;SDS011;10885;52.830;13.788;2023-02-10T16:40:03;58.78;;;22.63;;
21448;SDS011;10885;52.830;13.788;2023-02-10T16:45:26;43.78;;;20.27;;
21448;SDS011;10885;52.830;13.788;2023-02-10T16:50:49;56.47;;;21.77;;
21448;SDS011;10885;52.830;13.788;2023-02-10T16:56:14;54.80;;;23.10;;
21448;SDS011;10885;52.830;13.788;2023-02-10T17:01:36;59.65;;;22.38;;
21448;SDS011;10885;52.830;13.788;2023-02-10T17:12:18;51.13;;;21.35;;
21448;SDS011;10885;52.830;13.788;2023-02-10T17:17:39;51.25;;;23.67;;
21448;SDS011;10885;52.830;13.788;2023-02-10T17:23:00;63.17;;;25.17;;
21448;SDS011;10885;52.830;13.788;2023-02-10T17:28:24;56.22;;;24.30;;
21448;SDS011;10885;52.830;13.788;2023-02-10T17:39:13;51.00;;;21.92;;
21448;SDS011;10885;52.830;13.788;2023-02-10T17:44:45;55.08;;;23.73;;
21448;SDS011;10885;52.830;13.788;2023-02-10T17:50:06;45.40;;;22.48;;
21448;SDS011;10885;52.830;13.788;2023-02-10T17:55:27;51.42;;;22.55;;
21448;SDS011;10885;52.830;13.788;2023-02-10T18:00:48;55.03;;;22.83;;
21448;SDS011;10885;52.830;13.788;2023-02-10T18:06:10;58.40;;;23.45;;
21448;SDS011;10885;52.830;13.788;2023-02-10T18:11:36;77.22;;;33.53;;
21448;SDS011;10885;52.830;13.788;2023-02-10T18:16:57;53.15;;;24.38;;
21448;SDS011;10885;52.830;13.788;2023-02-10T18:22:19;56.50;;;24.25;;
21448;SDS011;10885;52.830;13.788;2023-02-10T18:27:39;56.08;;;24.02;;
21448;SDS011;10885;52.830;13.788;2023-02-10T18:33:01;56.88;;;23.95;;
21448;SDS011;10885;52.830;13.788;2023-02-10T18:38:22;58.92;;;23.38;;
21448;SDS011;10885;52.830;13.788;2023-02-10T18:43:44;58.78;;;23.48;;
21448;SDS011;10885;52.830;13.788;2023-02-10T18:49:07;64.47;;;23.58;;
21448;SDS011;10885;52.830;13.788;2023-02-10T18:54:28;50.20;;;22.60;;
21448;SDS011;10885;52.830;13.788;2023-02-10T18:59:49;56.88;;;22.50;;
21448;SDS011;10885;52.830;13.788;2023-02-10T19:05:10;50.22;;;21.42;;
21448;SDS011;10885;52.830;13.788;2023-02-10T19:10:31;49.00;;;20.95;;
21448;SDS011;10885;52.830;13.788;2023-02-10T19:15:54;52.50;;;21.05;;
21448;SDS011;10885;52.830;13.788;2023-02-10T19:21:15;49.25;;;21.25;;
21448;SDS011;10885;52.830;13.788;2023-02-10T19:26:37;52.47;;;21.83;;
21448;SDS011;10885;52.830;13.788;2023-02-10T19:31:58;47.47;;;20.80;;
21448;SDS011;10885;52.830;13.788;2023-02-10T19:37:20;45.58;;;19.33;;
21448;SDS011;10885;52.830;13.788;2023-02-10T19:42:42;50.30;;;19.20;;
21448;SDS011;10885;52.830;13.788;2023-02-10T19:48:03;41.58;;;19.48;;
21448;SDS011;10885;52.830;13.788;2023-02-10T19:53:24;44.92;;;19.08;;
21448;SDS011;10885;52.830;13.788;2023-02-10T20:04:06;41.72;;;17.63;;
21448;SDS011;10885;52.830;13.788;2023-02-10T20:09:28;42.42;;;17.38;;
21448;SDS011;10885;52.830;13.788;2023-02-10T20:14:51;40.95;;;16.95;;
21448;SDS011;10885;52.830;13.788;2023-02-10T20:20:12;40.17;;;17.08;;
21448;SDS011;10885;52.830;13.788;2023-02-10T20:30:54;32.15;;;14.93;;
21448;SDS011;10885;52.830;13.788;2023-02-10T20:36:18;42.33;;;15.40;;
21448;SDS011;10885;52.830;13.788;2023-02-10T20:41:40;46.85;;;16.70;;
21448;SDS011;10885;52.830;13.788;2023-02-10T20:47:01;39.60;;;16.08;;
21448;SDS011;10885;52.830;13.788;2023-02-10T20:52:23;39.10;;;16.35;;
21448;SDS011;10885;52.830;13.788;2023-02-10T20:57:45;34.10;;;15.63;;
21448;SDS011;10885;52.830;13.788;2023-02-10T21:03:06;41.90;;;16.05;;
21448;SDS011;10885;52.830;13.788;2023-02-10T21:08:27;39.53;;;16.38;;
21448;SDS011;10885;52.830;13.788;2023-02-10T21:13:48;40.10;;;15.93;;
21448;SDS011;10885;52.830;13.788;2023-02-10T21:19:09;43.97;;;15.88;;
21448;SDS011;10885;52.830;13.788;2023-02-10T21:29:51;44.15;;;16.83;;
21448;SDS011;10885;52.830;13.788;2023-02-10T21:35:13;37.97;;;15.95;;
21448;SDS011;10885;52.830;13.788;2023-02-10T21:40:33;38.55;;;16.67;;
21448;SDS011;10885;52.830;13.788;2023-02-10T21:51:15;38.33;;;15.20;;
21448;SDS011;10885;52.830;13.788;2023-02-10T21:56:37;39.42;;;17.17;;
21448;SDS011;10885;52.830;13.788;2023-02-10T22:01:58;41.25;;;16.65;;
21448;SDS011;10885;52.830;13.788;2023-02-10T22:07:24;41.53;;;16.95;;
21448;SDS011;10885;52.830;13.788;2023-02-10T22:12:45;43.65;;;18.27;;
21448;SDS011;10885;52.830;13.788;2023-02-10T22:18:06;39.40;;;17.60;;
21448;SDS011;10885;52.830;13.788;2023-02-10T22:23:27;40.97;;;17.52;;
21448;SDS011;10885;52.830;13.788;2023-02-10T22:28:47;42.00;;;18.40;;
21448;SDS011;10885;52.830;13.788;2023-02-10T22:34:09;45.83;;;17.20;;
21448;SDS011;10885;52.830;13.788;2023-02-10T22:44:51;41.92;;;17.88;;
21448;SDS011;10885;52.830;13.788;2023-02-10T22:50:12;46.20;;;19.08;;
